createdAt,value
2018-03-21T00:00:42.628Z,9.90
2018-03-21T00:03:12.501Z,9.23
2018-03-21T00:05:42.460Z,8.30
2018-03-21T00:08:12.294Z,9.50
2018-03-21T00:10:42.164Z,8.03
2018-03-21T00:13:12.063Z,9.87
2018-03-21T00:15:41.944Z,9.23
2018-03-21T00:18:11.789Z,7.37
2018-03-21T00:20:41.660Z,8.93
2018-03-21T00:23:11.550Z,7.43
2018-03-21T00:25:41.424Z,8.73
2018-03-21T00:28:11.297Z,8.00
2018-03-21T00:30:41.180Z,9.60
2018-03-21T00:33:11.019Z,8.50
2018-03-21T00:35:40.897Z,6.30
2018-03-21T00:38:10.840Z,8.43
2018-03-21T00:40:40.714Z,8.73
2018-03-21T00:43:10.569Z,8.47
2018-03-21T00:45:40.444Z,7.90
2018-03-21T00:48:10.272Z,8.10
2018-03-21T00:50:40.157Z,8.53
2018-03-21T00:53:10.016Z,9.80
2018-03-21T00:55:39.924Z,8.90
2018-03-21T00:58:09.766Z,8.30
2018-03-21T01:00:39.644Z,8.03
2018-03-21T01:03:10.160Z,9.53
2018-03-21T01:05:40.037Z,8.37
2018-03-21T01:08:09.935Z,10.10
2018-03-21T01:10:39.789Z,9.37
2018-03-21T01:13:09.673Z,12.37
2018-03-21T01:15:39.547Z,10.60
2018-03-21T01:18:09.428Z,9.53
2018-03-21T01:20:39.368Z,7.90
2018-03-21T01:23:09.252Z,11.03
2018-03-21T01:25:39.109Z,11.27
2018-03-21T01:28:09.005Z,9.57
2018-03-21T01:30:38.835Z,9.00
2018-03-21T01:33:08.756Z,9.90
2018-03-21T01:35:38.606Z,9.60
2018-03-21T01:38:08.492Z,8.17
2018-03-21T01:40:38.332Z,9.37
2018-03-21T01:43:08.221Z,9.60
2018-03-21T01:45:38.068Z,10.97
2018-03-21T01:48:07.946Z,10.07
2018-03-21T01:50:37.792Z,9.70
2018-03-21T01:53:10.488Z,9.33
2018-03-21T01:55:40.317Z,9.30
2018-03-21T01:58:10.252Z,10.50
2018-03-21T02:00:40.112Z,11.87
2018-03-21T02:03:09.996Z,10.50
2018-03-21T02:05:40.124Z,10.80
2018-03-21T02:08:10.013Z,12.80
2018-03-21T02:10:39.864Z,11.10
2018-03-21T02:13:09.743Z,9.50
2018-03-21T02:15:39.620Z,9.60
2018-03-21T02:18:09.511Z,9.10
2018-03-21T02:20:39.353Z,9.27
2018-03-21T02:23:09.228Z,9.07
2018-03-21T02:25:39.100Z,8.00
2018-03-21T02:28:08.947Z,9.40
2018-03-21T02:30:38.902Z,11.50
2018-03-21T02:33:08.715Z,11.60
2018-03-21T02:35:38.600Z,11.30
2018-03-21T02:38:08.453Z,11.20
2018-03-21T02:40:38.340Z,12.10
2018-03-21T02:43:08.282Z,9.90
2018-03-21T02:45:38.165Z,10.97
2018-03-21T02:48:08.013Z,9.97
2018-03-21T02:50:37.883Z,11.30
2018-03-21T02:53:07.742Z,11.03
2018-03-21T02:55:37.939Z,11.33
2018-03-21T02:58:07.793Z,9.23
2018-03-21T03:00:37.675Z,10.00
2018-03-21T03:03:07.509Z,10.73
2018-03-21T03:05:37.396Z,11.30
2018-03-21T03:08:07.261Z,11.37
2018-03-21T03:10:37.157Z,10.23
2018-03-21T03:13:07.028Z,11.07
2018-03-21T03:15:36.911Z,10.53
2018-03-21T03:18:07.065Z,10.87
2018-03-21T03:20:36.960Z,11.67
2018-03-21T03:23:06.804Z,11.67
2018-03-21T03:25:36.696Z,10.80
2018-03-21T03:28:06.569Z,9.17
2018-03-21T03:30:36.461Z,9.50
2018-03-21T03:33:06.296Z,10.27
2018-03-21T03:35:36.201Z,10.37
2018-03-21T03:38:06.049Z,9.93
2018-03-21T03:40:35.944Z,9.60
2018-03-21T03:43:05.805Z,9.70
2018-03-21T03:45:35.713Z,8.80
2018-03-21T03:48:05.583Z,10.80
2018-03-21T03:50:35.440Z,9.10
2018-03-21T03:53:05.361Z,9.97
2018-03-21T03:55:35.212Z,8.50
2018-03-21T03:58:05.092Z,8.30
2018-03-21T04:00:34.938Z,9.93
2018-03-21T04:03:04.800Z,8.00
2018-03-21T04:05:34.656Z,9.90
2018-03-21T04:08:04.539Z,9.10
2018-03-21T04:10:34.718Z,9.50
2018-03-21T04:13:04.628Z,9.00
2018-03-21T04:15:34.465Z,7.73
2018-03-21T04:18:04.348Z,8.23
2018-03-21T04:20:34.195Z,8.37
2018-03-21T04:23:04.088Z,9.70
2018-03-21T04:25:33.959Z,16.53
2018-03-21T04:28:04.077Z,8.30
2018-03-21T04:30:34.267Z,10.37
2018-03-21T04:33:04.149Z,9.53
2018-03-21T04:35:33.998Z,10.33
2018-03-21T04:38:03.892Z,9.50
2018-03-21T04:40:33.748Z,10.33
2018-03-21T04:43:03.636Z,9.87
2018-03-21T04:45:33.479Z,8.97
2018-03-21T04:48:03.359Z,8.73
2018-03-21T04:50:33.204Z,8.70
2018-03-21T04:53:03.134Z,8.20
2018-03-21T04:55:33.020Z,9.20
2018-03-21T04:58:02.916Z,9.77
2018-03-21T05:00:32.769Z,8.60
2018-03-21T05:03:03.024Z,9.70
2018-03-21T05:05:32.876Z,9.97
2018-03-21T05:08:02.752Z,9.60
2018-03-21T05:10:32.628Z,9.33
2018-03-21T05:13:02.466Z,9.87
2018-03-21T05:15:32.354Z,8.37
2018-03-21T05:18:02.180Z,9.80
2018-03-21T05:20:32.096Z,9.83
2018-03-21T05:23:01.976Z,9.57
2018-03-21T05:25:31.844Z,8.73
2018-03-21T05:28:01.696Z,8.00
2018-03-21T05:30:31.560Z,8.50
2018-03-21T05:33:01.426Z,9.33
2018-03-21T05:35:31.388Z,9.30
2018-03-21T05:38:01.237Z,10.47
2018-03-21T05:40:31.131Z,10.37
2018-03-21T05:43:00.996Z,8.80
2018-03-21T05:45:30.872Z,9.77
2018-03-21T05:48:01.121Z,10.67
2018-03-21T05:50:30.984Z,11.00
2018-03-21T05:53:00.841Z,9.53
2018-03-21T05:55:30.733Z,9.07
2018-03-21T05:58:00.631Z,9.30
2018-03-21T06:00:30.537Z,9.93
2018-03-21T06:03:00.387Z,10.70
2018-03-21T06:05:30.264Z,10.07
2018-03-21T06:08:00.116Z,10.17
2018-03-21T06:10:30.017Z,9.23
2018-03-21T06:12:59.876Z,10.90
2018-03-21T06:15:29.769Z,10.67
2018-03-21T06:17:59.609Z,10.60
2018-03-21T06:20:29.525Z,11.00
2018-03-21T06:22:59.376Z,12.40
2018-03-21T06:25:29.262Z,11.83
2018-03-21T06:27:59.135Z,12.97
2018-03-21T06:30:28.983Z,11.93
2018-03-21T06:32:58.862Z,11.00
2018-03-21T06:35:28.715Z,11.90
2018-03-21T06:37:58.730Z,11.07
2018-03-21T06:40:30.297Z,12.70
2018-03-21T06:43:00.480Z,11.83
2018-03-21T06:45:30.340Z,11.20
2018-03-21T06:48:00.238Z,11.23
2018-03-21T06:50:30.076Z,13.20
2018-03-21T06:52:59.996Z,11.53
2018-03-21T06:55:29.852Z,12.53
2018-03-21T06:57:59.747Z,11.97
2018-03-21T07:00:29.614Z,11.67
2018-03-21T07:02:59.535Z,11.87
2018-03-21T07:05:29.477Z,11.33
2018-03-21T07:07:59.369Z,10.37
2018-03-21T07:10:29.223Z,9.97
2018-03-21T07:12:59.135Z,10.90
2018-03-21T07:15:35.049Z,10.77
2018-03-21T07:18:05.031Z,11.03
2018-03-21T07:20:34.880Z,12.00
2018-03-21T07:23:04.826Z,11.23
2018-03-21T07:25:34.653Z,11.00
2018-03-21T07:28:04.596Z,11.33
2018-03-21T07:30:34.475Z,10.03
2018-03-21T07:33:04.387Z,11.77
2018-03-21T07:35:35.190Z,9.17
2018-03-21T07:38:05.404Z,10.23
2018-03-21T07:40:35.256Z,12.10
2018-03-21T07:43:05.148Z,10.67
2018-03-21T07:45:35.043Z,10.83
2018-03-21T07:48:04.913Z,9.50
2018-03-21T07:50:34.797Z,10.50
2018-03-21T07:53:04.652Z,10.37
2018-03-21T07:55:34.531Z,11.70
2018-03-21T07:58:04.389Z,11.70
2018-03-21T08:00:34.297Z,13.53
2018-03-21T08:03:04.156Z,11.17
2018-03-21T08:05:34.055Z,8.67
2018-03-21T08:08:03.922Z,10.03
2018-03-21T08:10:34.073Z,9.43
2018-03-21T08:13:04.100Z,8.27
2018-03-21T08:15:33.973Z,8.70
2018-03-21T08:18:03.844Z,9.20
2018-03-21T08:20:33.716Z,8.00
2018-03-21T08:23:03.569Z,11.37
2018-03-21T08:25:33.681Z,9.53
2018-03-21T08:28:03.589Z,11.53
2018-03-21T08:30:33.429Z,8.87
2018-03-21T08:33:03.306Z,9.40
2018-03-21T08:35:33.216Z,9.57
2018-03-21T08:38:03.060Z,9.90
2018-03-21T08:40:32.948Z,9.70
2018-03-21T08:43:02.799Z,12.20
2018-03-21T08:45:32.689Z,11.47
2018-03-21T08:48:02.536Z,12.33
2018-03-21T08:50:32.505Z,11.60
2018-03-21T08:53:02.364Z,10.97
2018-03-21T08:55:32.255Z,9.57
2018-03-21T08:58:02.148Z,10.70
2018-03-21T09:00:32.060Z,11.60
2018-03-21T09:03:01.949Z,10.93
2018-03-21T09:05:31.838Z,9.77
2018-03-21T09:08:01.721Z,10.43
2018-03-21T09:10:31.593Z,12.43
2018-03-21T09:13:01.645Z,12.80
2018-03-21T09:15:31.573Z,11.60
2018-03-21T09:18:01.467Z,12.20
2018-03-21T09:20:31.343Z,12.47
2018-03-21T09:23:01.446Z,13.53
2018-03-21T09:25:31.316Z,12.00
2018-03-21T09:28:01.280Z,10.37
2018-03-21T09:30:31.160Z,11.40
2018-03-21T09:33:01.140Z,10.27
2018-03-21T09:35:31.009Z,11.93
2018-03-21T09:38:00.904Z,11.37
2018-03-21T09:40:30.761Z,11.43
2018-03-21T09:43:00.653Z,11.80
2018-03-21T09:45:30.512Z,10.03
2018-03-21T09:48:00.424Z,11.90
2018-03-21T09:50:30.316Z,11.43
2018-03-21T09:53:00.198Z,11.00
2018-03-21T09:55:30.057Z,9.40
2018-03-21T09:57:59.945Z,11.40
2018-03-21T10:00:29.851Z,10.60
2018-03-21T10:02:59.725Z,11.30
2018-03-21T10:05:29.570Z,11.30
2018-03-21T10:07:59.480Z,10.73
2018-03-21T10:10:29.325Z,10.20
2018-03-21T10:12:59.671Z,10.10
2018-03-21T10:15:29.537Z,11.53
2018-03-21T10:17:59.456Z,13.07
2018-03-21T10:20:29.368Z,10.03
2018-03-21T10:22:59.248Z,10.93
2018-03-21T10:25:29.156Z,11.27
2018-03-21T10:27:59.007Z,11.03
2018-03-21T10:30:28.905Z,11.90
2018-03-21T10:32:58.785Z,11.90
2018-03-21T10:35:28.685Z,12.60
2018-03-21T10:37:58.552Z,12.27
2018-03-21T10:40:28.425Z,11.60
2018-03-21T10:42:58.320Z,10.07
2018-03-21T10:45:28.220Z,9.70
2018-03-21T10:47:58.052Z,11.13
2018-03-21T10:50:27.928Z,12.27
2018-03-21T10:52:57.827Z,9.57
2018-03-21T10:55:27.709Z,9.73
2018-03-21T10:57:57.564Z,10.90
2018-03-21T11:00:27.467Z,10.53
2018-03-21T11:03:02.309Z,9.97
2018-03-21T11:05:32.192Z,10.27
2018-03-21T11:08:02.062Z,8.67
2018-03-21T11:10:31.938Z,9.87
2018-03-21T11:13:01.788Z,10.17
2018-03-21T11:15:31.677Z,12.03
2018-03-21T11:18:01.548Z,10.70
2018-03-21T11:20:31.444Z,9.23
2018-03-21T11:23:01.292Z,9.97
2018-03-21T11:25:31.303Z,10.47
2018-03-21T11:28:01.192Z,9.03
2018-03-21T11:30:31.099Z,9.27
2018-03-21T11:33:00.947Z,8.40
2018-03-21T11:35:30.853Z,8.40
2018-03-21T11:38:00.695Z,8.20
2018-03-21T11:40:30.605Z,8.50
2018-03-21T11:43:00.482Z,9.30
2018-03-21T11:45:30.373Z,9.63
2018-03-21T11:48:00.254Z,8.73
2018-03-21T11:50:30.093Z,9.23
2018-03-21T11:52:59.969Z,7.90
2018-03-21T11:55:29.824Z,9.87
2018-03-21T11:57:59.720Z,10.70
2018-03-21T12:00:29.577Z,11.53
2018-03-21T12:02:59.904Z,7.80
2018-03-21T12:05:29.756Z,9.60
2018-03-21T12:07:59.636Z,10.23
2018-03-21T12:10:29.722Z,10.40
2018-03-21T12:12:59.613Z,11.27
2018-03-21T12:15:29.456Z,9.37
2018-03-21T12:17:59.331Z,8.77
2018-03-21T12:20:29.165Z,10.30
2018-03-21T12:22:59.086Z,9.10
2018-03-21T12:25:28.932Z,9.30
2018-03-21T12:27:58.812Z,8.50
2018-03-21T12:30:28.662Z,9.33
2018-03-21T12:32:58.576Z,7.00
2018-03-21T12:35:28.421Z,7.10
2018-03-21T12:37:58.301Z,6.97
2018-03-21T12:40:28.152Z,9.10
2018-03-21T12:42:58.036Z,9.10
2018-03-21T12:45:27.873Z,7.17
2018-03-21T12:47:57.740Z,8.30
2018-03-21T12:50:27.600Z,7.53
2018-03-21T12:52:57.748Z,9.67
2018-03-21T12:55:27.666Z,8.43
2018-03-21T12:57:57.559Z,9.50
2018-03-21T13:00:27.428Z,8.50
2018-03-21T13:02:57.260Z,9.63
2018-03-21T13:05:27.156Z,8.50
2018-03-21T13:07:57.000Z,9.60
2018-03-21T13:10:26.909Z,8.50
2018-03-21T13:12:56.749Z,9.00
2018-03-21T13:15:26.629Z,10.43
2018-03-21T13:17:56.506Z,12.40
2018-03-21T13:20:26.395Z,12.33
2018-03-21T13:22:56.257Z,10.07
2018-03-21T13:25:26.152Z,9.83
2018-03-21T13:27:56.012Z,9.80
2018-03-21T13:30:25.883Z,11.40
2018-03-21T13:32:55.719Z,8.83
2018-03-21T13:35:25.612Z,8.47
2018-03-21T13:37:55.488Z,9.67
2018-03-21T13:40:25.376Z,9.63
2018-03-21T13:42:55.215Z,8.43
2018-03-21T13:45:25.088Z,9.23
2018-03-21T13:47:54.948Z,12.97
2018-03-21T13:50:24.902Z,11.23
2018-03-21T13:52:54.753Z,13.20
2018-03-21T13:55:24.636Z,10.87
2018-03-21T13:57:54.513Z,11.03
2018-03-21T14:00:24.408Z,10.17
2018-03-21T14:02:54.270Z,8.30
2018-03-21T14:05:24.215Z,10.07
2018-03-21T14:07:54.084Z,12.20
2018-03-21T14:10:23.995Z,9.87
2018-03-21T14:12:53.854Z,11.00
2018-03-21T14:15:23.760Z,12.43
2018-03-21T14:17:53.648Z,9.90
2018-03-21T14:20:23.533Z,9.67
2018-03-21T14:22:53.420Z,10.47
2018-03-21T14:25:23.279Z,8.70
2018-03-21T14:27:53.305Z,12.07
2018-03-21T14:30:23.165Z,10.20
2018-03-21T14:32:53.045Z,10.53
2018-03-21T14:35:22.908Z,8.67
2018-03-21T14:37:52.814Z,9.40
2018-03-21T14:40:22.689Z,11.90
2018-03-21T14:42:52.567Z,10.13
2018-03-21T14:45:22.416Z,9.17
2018-03-21T14:47:52.289Z,8.20
2018-03-21T14:50:22.140Z,10.70
2018-03-21T14:52:52.037Z,10.93
2018-03-21T14:55:21.895Z,10.70
2018-03-21T14:57:51.819Z,11.87
2018-03-21T15:00:21.661Z,11.93
2018-03-21T15:02:51.556Z,11.20
2018-03-21T15:05:21.421Z,10.73
2018-03-21T15:07:51.324Z,10.10
2018-03-21T15:10:21.308Z,12.57
2018-03-21T15:12:51.190Z,11.20
2018-03-21T15:15:21.084Z,13.10
2018-03-21T15:17:50.988Z,12.40
2018-03-21T15:20:20.847Z,10.83
2018-03-21T15:22:50.750Z,12.20
2018-03-21T15:25:20.607Z,11.93
2018-03-21T15:27:50.493Z,12.33
2018-03-21T15:30:20.385Z,12.57
2018-03-21T15:32:50.286Z,14.63
2018-03-21T15:35:20.222Z,16.00
2018-03-21T15:37:50.098Z,15.70
2018-03-21T15:40:20.005Z,13.37
2018-03-21T15:42:49.852Z,12.07
2018-03-21T15:45:19.765Z,10.17
2018-03-21T15:47:49.623Z,12.27
2018-03-21T15:50:19.544Z,13.53
2018-03-21T15:52:49.401Z,13.77
2018-03-21T15:55:19.293Z,14.67
2018-03-21T15:57:49.153Z,16.57
2018-03-21T16:00:19.061Z,16.83
2018-03-21T16:02:48.916Z,13.07
2018-03-21T16:05:18.810Z,12.83
2018-03-21T16:07:48.681Z,13.33
2018-03-21T16:10:18.582Z,12.73
2018-03-21T16:12:48.500Z,14.20
2018-03-21T16:15:18.392Z,10.97
2018-03-21T16:17:48.287Z,11.03
2018-03-21T16:20:18.168Z,12.73
2018-03-21T16:22:48.064Z,13.07
2018-03-21T16:25:17.947Z,12.70
2018-03-21T16:27:47.831Z,10.17
2018-03-21T16:30:18.002Z,13.40
2018-03-21T16:32:47.917Z,13.40
2018-03-21T16:35:17.824Z,13.07
2018-03-21T16:37:47.795Z,11.87
2018-03-21T16:40:17.726Z,12.73
2018-03-21T16:42:48.348Z,12.80
2018-03-21T16:45:18.260Z,14.07
2018-03-21T16:47:48.117Z,17.87
2018-03-21T16:50:18.000Z,17.80
2018-03-21T16:52:47.953Z,14.57
2018-03-21T16:55:17.872Z,10.90
2018-03-21T16:57:47.729Z,11.50
2018-03-21T17:00:17.615Z,14.57
2018-03-21T17:02:47.492Z,14.53
2018-03-21T17:05:17.350Z,13.73
2018-03-21T17:07:47.280Z,19.70
2018-03-21T17:10:17.211Z,17.37
2018-03-21T17:12:47.052Z,16.73
2018-03-21T17:15:16.909Z,18.40
2018-03-21T17:17:46.816Z,15.80
2018-03-21T17:20:16.700Z,17.87
2018-03-21T17:22:46.592Z,15.13
2018-03-21T17:25:16.448Z,16.03
2018-03-21T17:27:46.408Z,14.53
2018-03-21T17:30:16.268Z,14.93
2018-03-21T17:32:47.968Z,18.10
2018-03-21T17:35:17.991Z,16.87
2018-03-21T17:37:48.310Z,15.07
2018-03-21T17:40:18.288Z,15.63
2018-03-21T17:42:48.316Z,16.73
2018-03-21T17:45:18.312Z,17.30
2018-03-21T17:47:48.231Z,17.07
2018-03-21T17:50:18.516Z,37.10
2018-03-21T17:52:48.420Z,17.20
2018-03-21T17:55:18.587Z,17.30
2018-03-21T17:57:50.119Z,18.73
2018-03-21T18:00:20.125Z,16.53
2018-03-21T18:02:50.461Z,17.00
2018-03-21T18:05:20.341Z,13.50
2018-03-21T18:07:50.770Z,15.40
2018-03-21T18:10:21.920Z,15.33
2018-03-21T18:12:51.913Z,15.27
2018-03-21T18:15:21.928Z,15.03
2018-03-21T18:17:51.920Z,16.47
2018-03-21T18:20:21.797Z,18.33
2018-03-21T18:22:51.684Z,17.00
2018-03-21T18:25:21.579Z,14.53
2018-03-21T18:27:51.432Z,12.43
2018-03-21T18:30:21.311Z,13.13
2018-03-21T18:32:51.464Z,16.50
2018-03-21T18:35:21.380Z,15.80
2018-03-21T18:37:51.276Z,12.80
2018-03-21T18:40:21.139Z,15.70
2018-03-21T18:42:50.992Z,11.50
2018-03-21T18:45:20.900Z,14.00
2018-03-21T18:47:50.728Z,16.50
2018-03-21T18:50:20.611Z,14.07
2018-03-21T18:52:50.636Z,15.40
2018-03-21T18:55:20.917Z,14.80
2018-03-21T18:57:52.373Z,15.90
2018-03-21T19:00:22.284Z,16.37
2018-03-21T19:02:52.200Z,14.83
2018-03-21T19:05:23.082Z,13.07
2018-03-21T19:07:53.316Z,15.40
2018-03-21T19:10:23.512Z,13.83
2018-03-21T19:12:53.405Z,12.57
2018-03-21T19:15:23.633Z,12.10
2018-03-21T19:17:53.492Z,14.20
2018-03-21T19:20:23.393Z,14.57
2018-03-21T19:22:53.436Z,13.50
2018-03-21T19:25:23.465Z,13.53
2018-03-21T19:27:53.388Z,16.40
2018-03-21T19:30:23.285Z,14.47
2018-03-21T19:32:53.142Z,13.87
2018-03-21T19:35:23.033Z,14.77
2018-03-21T19:37:52.892Z,12.80
2018-03-21T19:40:25.736Z,14.23
2018-03-21T19:42:55.592Z,15.37
2018-03-21T19:45:25.488Z,16.80
2018-03-21T19:47:55.361Z,15.50
2018-03-21T19:50:25.257Z,14.23
2018-03-21T19:52:55.152Z,16.30
2018-03-21T19:55:25.021Z,19.30
2018-03-21T19:57:54.927Z,13.23
2018-03-21T20:00:25.112Z,14.20
2018-03-21T20:02:55.021Z,16.00
2018-03-21T20:05:24.911Z,16.67
2018-03-21T20:07:54.791Z,17.30
2018-03-21T20:10:24.652Z,15.60
2018-03-21T20:12:54.577Z,19.43
2018-03-21T20:15:24.439Z,17.07
2018-03-21T20:17:54.322Z,18.70
2018-03-21T20:20:24.172Z,15.77
2018-03-21T20:22:54.075Z,14.80
2018-03-21T20:25:23.932Z,16.73
2018-03-21T20:27:53.816Z,19.13
2018-03-21T20:30:23.665Z,15.97
2018-03-21T20:32:53.539Z,15.37
2018-03-21T20:35:23.393Z,16.20
2018-03-21T20:37:53.305Z,16.00
2018-03-21T20:40:23.239Z,16.93
2018-03-21T20:42:53.200Z,17.03
2018-03-21T20:45:23.052Z,14.77
2018-03-21T20:47:52.948Z,16.23
2018-03-21T20:50:22.799Z,15.00
2018-03-21T20:52:52.759Z,20.03
2018-03-21T20:55:23.957Z,18.17
2018-03-21T20:57:54.004Z,16.90
2018-03-21T21:00:24.501Z,20.07
2018-03-21T21:02:55.417Z,18.17
2018-03-21T21:05:25.296Z,16.07
2018-03-21T21:07:55.177Z,18.17
2018-03-21T21:10:25.091Z,17.20
2018-03-21T21:12:54.945Z,15.87
2018-03-21T21:15:24.832Z,16.40
2018-03-21T21:17:54.708Z,14.37
2018-03-21T21:20:24.599Z,18.03
2018-03-21T21:22:54.444Z,16.57
2018-03-21T21:25:24.336Z,17.23
2018-03-21T21:27:54.178Z,18.40
2018-03-21T21:30:24.093Z,16.80
2018-03-21T21:32:53.944Z,16.40
2018-03-21T21:35:23.858Z,19.73
2018-03-21T21:37:53.714Z,16.70
2018-03-21T21:40:23.585Z,21.20
2018-03-21T21:42:53.572Z,17.90
2018-03-21T21:45:23.484Z,18.63
2018-03-21T21:47:53.320Z,17.73
2018-03-21T21:50:23.208Z,14.90
2018-03-21T21:52:53.068Z,20.50
2018-03-21T21:55:22.965Z,20.30
2018-03-21T21:57:52.829Z,19.13
2018-03-21T22:00:22.712Z,18.07
2018-03-21T22:02:52.584Z,18.87
2018-03-21T22:05:22.492Z,16.43
2018-03-21T22:07:52.377Z,18.27
2018-03-21T22:10:22.268Z,18.10
2018-03-21T22:12:52.167Z,18.27
2018-03-21T22:15:22.043Z,18.20
2018-03-21T22:17:51.936Z,17.80
2018-03-21T22:20:21.839Z,18.03
2018-03-21T22:22:51.724Z,18.47
2018-03-21T22:25:21.613Z,20.00
2018-03-21T22:27:51.514Z,18.77
2018-03-21T22:30:21.695Z,19.07
2018-03-21T22:32:51.619Z,20.50
2018-03-21T22:35:21.508Z,20.93
2018-03-21T22:37:51.375Z,21.43
2018-03-21T22:40:21.218Z,21.70
2018-03-21T22:42:51.093Z,21.47
2018-03-21T22:45:20.969Z,18.53
2018-03-21T22:47:50.852Z,20.77
2018-03-21T22:50:20.699Z,21.07
2018-03-21T22:52:50.595Z,21.20
2018-03-21T22:55:21.290Z,18.07
2018-03-21T22:57:51.473Z,21.00
2018-03-21T23:00:21.308Z,20.57
2018-03-21T23:02:51.196Z,20.80
2018-03-21T23:05:21.051Z,21.40
2018-03-21T23:07:50.944Z,18.57
2018-03-21T23:10:20.814Z,21.10
2018-03-21T23:12:50.701Z,21.70
2018-03-21T23:15:20.679Z,23.23
2018-03-21T23:17:50.593Z,21.73
2018-03-21T23:20:20.513Z,23.57
2018-03-21T23:22:50.400Z,20.80
2018-03-21T23:25:20.269Z,34.93
2018-03-21T23:27:50.144Z,27.93
2018-03-21T23:30:20.002Z,37.80
2018-03-21T23:32:49.896Z,23.00
2018-03-21T23:35:19.773Z,23.03
2018-03-21T23:37:49.689Z,23.33
2018-03-21T23:40:19.544Z,23.03
2018-03-21T23:42:49.448Z,22.27
2018-03-21T23:45:19.337Z,22.63
2018-03-21T23:47:49.224Z,27.27
2018-03-21T23:50:19.100Z,26.53
2018-03-21T23:52:48.952Z,23.57
2018-03-21T23:55:18.824Z,29.73
2018-03-21T23:57:48.677Z,27.20
